createdAt,value
2023-05-13T00:00:17.367Z,5.32
2023-05-13T00:01:19.068Z,5.30
2023-05-13T00:02:21.030Z,5.29
2023-05-13T00:03:22.788Z,5.29
2023-05-13T00:04:24.334Z,5.29
2023-05-13T00:05:25.840Z,5.27
2023-05-13T00:06:27.412Z,5.26
2023-05-13T00:07:28.881Z,5.26
2023-05-13T00:08:30.316Z,5.26
2023-05-13T00:09:31.848Z,5.24
2023-05-13T00:10:33.351Z,5.23
2023-05-13T00:11:34.823Z,5.23
2023-05-13T00:12:36.260Z,5.21
2023-05-13T00:13:37.746Z,5.20
2023-05-13T00:14:39.374Z,5.21
2023-05-13T00:15:40.886Z,5.19
2023-05-13T00:16:42.436Z,5.19
2023-05-13T00:17:43.959Z,5.18
2023-05-13T00:18:45.493Z,5.17
2023-05-13T00:19:46.903Z,5.16
2023-05-13T00:20:48.389Z,5.15
2023-05-13T00:21:49.858Z,5.15
2023-05-13T00:22:51.360Z,5.14
2023-05-13T00:23:52.782Z,5.13
2023-05-13T00:24:54.216Z,5.12
2023-05-13T00:25:55.682Z,5.11
2023-05-13T00:26:57.082Z,5.10
2023-05-13T00:27:58.527Z,5.09
2023-05-13T00:29:00.035Z,5.09
2023-05-13T00:30:01.567Z,5.07
2023-05-13T00:31:03.106Z,5.08
2023-05-13T00:32:04.789Z,5.07
2023-05-13T00:33:06.309Z,5.05
2023-05-13T00:34:07.791Z,5.06
2023-05-13T00:35:09.219Z,5.04
2023-05-13T00:36:10.668Z,5.04
2023-05-13T00:37:12.127Z,5.02
2023-05-13T00:38:13.587Z,5.01
2023-05-13T00:39:15.034Z,5.01
2023-05-13T00:40:16.461Z,5.00
2023-05-13T00:41:17.952Z,5.00
2023-05-13T00:42:19.393Z,4.99
2023-05-13T00:43:20.833Z,4.98
2023-05-13T00:44:22.286Z,4.98
2023-05-13T00:45:23.753Z,4.97
2023-05-13T00:46:25.449Z,4.96
2023-05-13T00:47:26.977Z,4.96
2023-05-13T00:48:28.467Z,4.95
2023-05-13T00:49:29.878Z,4.95
2023-05-13T00:50:31.319Z,4.94
2023-05-13T00:51:32.818Z,4.93
2023-05-13T00:52:34.260Z,4.93
2023-05-13T00:53:35.703Z,4.93
2023-05-13T00:54:37.123Z,4.92
2023-05-13T00:55:38.542Z,4.91
2023-05-13T00:56:39.985Z,4.90
2023-05-13T00:57:41.418Z,4.90
2023-05-13T00:58:42.818Z,4.89
2023-05-13T00:59:44.244Z,4.89
2023-05-13T01:00:45.741Z,4.88
2023-05-13T01:01:47.257Z,4.88
2023-05-13T01:02:48.795Z,4.88
2023-05-13T01:03:50.305Z,4.87
2023-05-13T01:04:51.747Z,4.87
2023-05-13T01:05:53.169Z,4.87
2023-05-13T01:06:54.964Z,4.87
2023-05-13T01:07:56.352Z,4.86
2023-05-13T01:08:57.768Z,4.86
2023-05-13T01:09:59.190Z,4.86
2023-05-13T01:11:00.638Z,4.86
2023-05-13T01:12:02.071Z,4.86
2023-05-13T01:13:03.515Z,4.86
2023-05-13T01:14:04.975Z,4.86
2023-05-13T01:15:06.462Z,4.85
2023-05-13T01:16:07.935Z,4.85
2023-05-13T01:17:09.395Z,4.85
2023-05-13T01:18:10.977Z,4.85
2023-05-13T01:19:12.482Z,4.86
2023-05-13T01:20:13.934Z,4.85
2023-05-13T01:21:15.410Z,4.84
2023-05-13T01:22:16.859Z,4.85
2023-05-13T01:23:18.276Z,4.85
2023-05-13T01:24:19.720Z,4.84
2023-05-13T01:25:21.150Z,4.84
2023-05-13T01:26:22.601Z,4.84
2023-05-13T01:27:24.063Z,4.84
2023-05-13T01:28:25.507Z,4.83
2023-05-13T01:29:26.928Z,4.83
2023-05-13T01:30:28.372Z,4.83
2023-05-13T01:31:29.861Z,4.83
2023-05-13T01:32:31.388Z,4.83
2023-05-13T01:33:32.854Z,4.82
2023-05-13T01:34:34.261Z,4.82
2023-05-13T01:35:35.682Z,4.82
2023-05-13T01:36:37.125Z,4.83
2023-05-13T01:37:38.597Z,4.83
2023-05-13T01:38:39.991Z,4.83
2023-05-13T01:39:41.430Z,4.83
2023-05-13T01:40:42.857Z,4.82
2023-05-13T01:41:44.290Z,4.82
2023-05-13T01:42:45.751Z,4.82
2023-05-13T01:43:47.177Z,4.83
2023-05-13T01:44:48.616Z,4.83
2023-05-13T01:45:50.075Z,4.84
2023-05-13T01:46:51.544Z,4.83
2023-05-13T01:47:53.069Z,4.83
2023-05-13T01:48:54.504Z,4.84
2023-05-13T01:49:55.942Z,4.83
2023-05-13T01:50:57.397Z,4.84
2023-05-13T01:51:58.832Z,4.84
2023-05-13T01:53:00.297Z,4.83
2023-05-13T01:54:01.694Z,4.84
2023-05-13T01:55:03.138Z,4.84
2023-05-13T01:56:04.624Z,4.84
2023-05-13T01:57:06.075Z,4.84
2023-05-13T01:58:07.499Z,4.83
2023-05-13T01:59:08.913Z,4.86
2023-05-13T02:00:10.401Z,4.85
2023-05-13T02:01:11.851Z,4.85
2023-05-13T02:02:13.383Z,4.85
2023-05-13T02:03:14.892Z,4.85
2023-05-13T02:04:16.480Z,4.85
2023-05-13T02:05:18.170Z,4.85
2023-05-13T02:06:19.744Z,4.85
2023-05-13T02:07:21.163Z,4.85
2023-05-13T02:08:22.626Z,4.86
2023-05-13T02:09:24.036Z,4.86
2023-05-13T02:10:25.475Z,4.86
2023-05-13T02:11:27.008Z,4.86
2023-05-13T02:12:28.536Z,4.86
2023-05-13T02:13:29.966Z,4.86
2023-05-13T02:14:31.427Z,4.87
2023-05-13T02:15:32.867Z,4.86
2023-05-13T02:16:34.387Z,4.87
2023-05-13T02:17:35.854Z,4.88
2023-05-13T02:18:37.456Z,4.87
2023-05-13T02:19:38.880Z,4.87
2023-05-13T02:20:40.327Z,4.88
2023-05-13T02:21:41.764Z,4.87
2023-05-13T02:22:43.284Z,4.89
2023-05-13T02:23:44.744Z,4.89
2023-05-13T02:24:46.209Z,4.88
2023-05-13T02:25:47.666Z,4.88
2023-05-13T02:26:49.110Z,4.88
2023-05-13T02:27:50.504Z,4.88
2023-05-13T02:28:51.937Z,4.88
2023-05-13T02:29:53.389Z,4.88
2023-05-13T02:30:54.819Z,4.90
2023-05-13T02:31:56.340Z,4.89
2023-05-13T02:32:57.822Z,4.90
2023-05-13T02:33:59.293Z,4.89
2023-05-13T02:35:00.879Z,4.89
2023-05-13T02:36:02.368Z,4.90
2023-05-13T02:37:03.838Z,4.90
2023-05-13T02:38:05.283Z,4.90
2023-05-13T02:39:06.732Z,4.91
2023-05-13T02:40:08.244Z,4.91
2023-05-13T02:41:09.695Z,4.90
2023-05-13T02:42:11.157Z,4.92
2023-05-13T02:43:12.597Z,4.91
2023-05-13T02:44:14.058Z,4.92
2023-05-13T02:45:15.500Z,4.93
2023-05-13T02:46:17.016Z,4.92
2023-05-13T02:47:18.540Z,4.93
2023-05-13T02:48:19.997Z,4.93
2023-05-13T02:49:21.452Z,4.92
2023-05-13T02:50:23.069Z,4.93
2023-05-13T02:51:24.670Z,4.93
2023-05-13T02:52:26.144Z,4.93
2023-05-13T02:53:27.575Z,4.94
2023-05-13T02:54:29.001Z,4.93
2023-05-13T02:55:30.448Z,4.93
2023-05-13T02:56:31.934Z,4.93
2023-05-13T02:57:33.399Z,4.93
2023-05-13T02:58:34.866Z,4.94
2023-05-13T02:59:36.319Z,4.94
2023-05-13T03:00:37.808Z,4.94
2023-05-13T03:01:39.277Z,4.94
2023-05-13T03:02:40.863Z,4.94
2023-05-13T03:03:42.387Z,4.93
2023-05-13T03:04:43.895Z,4.93
2023-05-13T03:05:45.321Z,4.95
2023-05-13T03:06:46.780Z,4.95
2023-05-13T03:07:48.225Z,4.95
2023-05-13T03:08:49.652Z,4.95
2023-05-13T03:09:51.197Z,4.95
2023-05-13T03:10:52.657Z,4.95
2023-05-13T03:11:54.135Z,4.95
2023-05-13T03:12:55.645Z,4.95
2023-05-13T03:13:57.095Z,4.96
2023-05-13T03:14:58.601Z,4.96
2023-05-13T03:16:00.086Z,4.95
2023-05-13T03:17:02.046Z,4.95
2023-05-13T03:18:03.588Z,4.96
2023-05-13T03:19:05.105Z,4.96
2023-05-13T03:20:06.585Z,4.96
2023-05-13T03:21:08.039Z,4.97
2023-05-13T03:22:09.482Z,4.97
2023-05-13T03:23:10.917Z,4.96
2023-05-13T03:24:12.360Z,4.96
2023-05-13T03:25:13.828Z,4.95
2023-05-13T03:26:15.338Z,4.96
2023-05-13T03:27:16.761Z,4.97
2023-05-13T03:28:18.173Z,4.97
2023-05-13T03:29:19.591Z,4.96
2023-05-13T03:30:21.250Z,4.96
2023-05-13T03:31:22.863Z,4.97
2023-05-13T03:32:24.387Z,4.96
2023-05-13T03:33:25.882Z,4.97
2023-05-13T03:34:27.318Z,4.97
2023-05-13T03:35:29.026Z,4.96
2023-05-13T03:36:30.430Z,4.97
2023-05-13T03:37:31.856Z,4.96
2023-05-13T03:38:33.294Z,4.98
2023-05-13T03:39:34.766Z,4.98
2023-05-13T03:40:36.222Z,4.97
2023-05-13T03:41:37.730Z,4.97
2023-05-13T03:42:39.207Z,4.98
2023-05-13T03:43:40.704Z,4.98
2023-05-13T03:44:42.176Z,4.98
2023-05-13T03:45:43.616Z,4.98
2023-05-13T03:46:45.164Z,5.00
2023-05-13T03:47:46.787Z,4.98
2023-05-13T03:48:48.223Z,4.99
2023-05-13T03:49:49.653Z,4.99
2023-05-13T03:50:51.066Z,5.00
2023-05-13T03:51:52.557Z,5.00
2023-05-13T03:52:53.977Z,5.00
2023-05-13T03:53:55.476Z,5.01
2023-05-13T03:54:56.947Z,5.01
2023-05-13T03:55:58.452Z,5.01
2023-05-13T03:57:00.168Z,4.99
2023-05-13T03:58:01.646Z,5.02
2023-05-13T03:59:03.144Z,5.02
2023-05-13T04:00:04.605Z,5.02
2023-05-13T04:01:06.044Z,5.02
2023-05-13T04:02:07.554Z,5.02
2023-05-13T04:03:09.256Z,5.02
2023-05-13T04:04:10.797Z,5.04
2023-05-13T04:05:12.334Z,5.03
2023-05-13T04:06:13.800Z,5.03
2023-05-13T04:07:15.257Z,5.04
2023-05-13T04:08:16.796Z,5.04
2023-05-13T04:09:18.273Z,5.05
2023-05-13T04:10:19.906Z,5.05
2023-05-13T04:11:21.458Z,5.06
2023-05-13T04:12:22.925Z,5.05
2023-05-13T04:13:24.399Z,5.05
2023-05-13T04:14:25.855Z,5.05
2023-05-13T04:15:27.324Z,5.06
2023-05-13T04:16:28.880Z,5.06
2023-05-13T04:17:30.441Z,5.07
2023-05-13T04:18:31.930Z,5.06
2023-05-13T04:19:33.415Z,5.07
2023-05-13T04:20:34.872Z,5.07
2023-05-13T04:21:36.400Z,5.07
2023-05-13T04:22:37.906Z,5.07
2023-05-13T04:23:39.332Z,5.08
2023-05-13T04:24:40.794Z,5.08
2023-05-13T04:25:42.297Z,5.08
2023-05-13T04:26:43.848Z,5.09
2023-05-13T04:27:45.323Z,5.09
2023-05-13T04:28:46.773Z,5.09
2023-05-13T04:29:48.260Z,5.10
2023-05-13T04:30:49.679Z,5.09
2023-05-13T04:31:51.202Z,5.10
2023-05-13T04:32:52.866Z,5.11
2023-05-13T04:33:54.468Z,5.12
2023-05-13T04:34:55.968Z,5.10
2023-05-13T04:35:57.406Z,5.11
2023-05-13T04:36:58.907Z,5.12
2023-05-13T04:38:00.336Z,5.11
2023-05-13T04:39:01.832Z,5.13
2023-05-13T04:40:03.283Z,5.13
2023-05-13T04:41:04.730Z,5.12
2023-05-13T04:42:06.602Z,5.14
2023-05-13T04:43:08.160Z,5.13
2023-05-13T04:44:09.611Z,5.14
2023-05-13T04:45:11.069Z,5.14
2023-05-13T04:46:12.655Z,5.15
2023-05-13T04:47:14.190Z,5.16
2023-05-13T04:48:15.636Z,5.15
2023-05-13T04:49:17.106Z,5.15
2023-05-13T04:50:19.163Z,5.15
2023-05-13T04:51:20.917Z,5.17
2023-05-13T04:52:22.753Z,5.17
2023-05-13T04:53:24.186Z,5.18
2023-05-13T04:54:25.632Z,5.18
2023-05-13T04:55:27.846Z,5.19
2023-05-13T04:56:29.557Z,5.19
2023-05-13T04:57:31.107Z,5.19
2023-05-13T04:58:32.710Z,5.19
2023-05-13T04:59:34.291Z,5.20
2023-05-13T05:00:35.794Z,5.20
2023-05-13T05:01:37.326Z,5.20
2023-05-13T05:02:38.914Z,5.20
2023-05-13T05:03:40.481Z,5.22
2023-05-13T05:04:42.112Z,5.23
2023-05-13T05:05:43.635Z,5.22
2023-05-13T05:06:45.184Z,5.23
2023-05-13T05:07:46.794Z,5.23
2023-05-13T05:08:48.355Z,5.24
2023-05-13T05:09:49.863Z,5.24
2023-05-13T05:10:51.420Z,5.24
2023-05-13T05:11:53.026Z,5.26
2023-05-13T05:12:54.645Z,5.27
2023-05-13T05:13:56.177Z,5.28
2023-05-13T05:14:57.692Z,5.27
2023-05-13T05:15:59.256Z,5.28
2023-05-13T05:17:00.783Z,5.29
2023-05-13T05:18:02.540Z,5.30
2023-05-13T05:19:04.382Z,5.30
2023-05-13T05:20:06.085Z,5.32
2023-05-13T05:21:07.728Z,5.33
2023-05-13T05:22:09.293Z,5.33
2023-05-13T05:23:10.785Z,5.34
2023-05-13T05:24:12.383Z,5.33
2023-05-13T05:25:13.941Z,5.36
2023-05-13T05:26:15.493Z,5.37
2023-05-13T05:27:17.003Z,5.39
2023-05-13T05:28:18.615Z,5.40
2023-05-13T05:29:20.154Z,5.40
2023-05-13T05:30:21.967Z,5.42
2023-05-13T05:31:23.752Z,5.43
2023-05-13T05:32:25.437Z,5.43
2023-05-13T05:33:27.061Z,5.46
2023-05-13T05:34:28.596Z,5.46
2023-05-13T05:35:30.190Z,5.47
2023-05-13T05:36:31.821Z,5.49
2023-05-13T05:37:33.493Z,5.50
2023-05-13T05:38:35.053Z,5.50
2023-05-13T05:39:36.556Z,5.53
2023-05-13T05:40:38.114Z,5.53
2023-05-13T05:41:39.650Z,5.54
2023-05-13T05:42:41.484Z,5.55
2023-05-13T05:43:42.992Z,5.57
2023-05-13T05:44:44.593Z,5.58
2023-05-13T05:45:46.217Z,5.60
2023-05-13T05:46:48.156Z,5.60
2023-05-13T05:47:49.742Z,5.62
2023-05-13T05:48:51.289Z,5.64
2023-05-13T05:49:52.868Z,5.64
2023-05-13T05:50:54.397Z,5.66
2023-05-13T05:51:55.971Z,5.68
2023-05-13T05:52:57.552Z,5.69
2023-05-13T05:53:59.149Z,5.70
2023-05-13T05:55:00.737Z,5.73
2023-05-13T05:56:02.318Z,5.75
2023-05-13T05:57:03.955Z,5.77
2023-05-13T05:58:05.604Z,5.78
2023-05-13T05:59:07.286Z,5.80
2023-05-13T06:00:08.836Z,5.81
2023-05-13T06:01:10.355Z,5.83
2023-05-13T06:02:11.919Z,5.85
2023-05-13T06:03:13.720Z,5.87
2023-05-13T06:04:16.001Z,5.91
2023-05-13T06:05:17.619Z,5.92
2023-05-13T06:06:19.182Z,5.94
2023-05-13T06:07:20.667Z,5.95
2023-05-13T06:08:22.166Z,5.98
2023-05-13T06:09:23.845Z,5.99
2023-05-13T06:10:25.310Z,6.02
2023-05-13T06:11:26.731Z,6.04
2023-05-13T06:12:28.136Z,6.06
2023-05-13T06:13:29.538Z,6.08
2023-05-13T06:14:30.988Z,6.12
2023-05-13T06:15:32.630Z,6.14
2023-05-13T06:16:34.167Z,6.17
2023-05-13T06:17:35.660Z,6.19
2023-05-13T06:18:37.158Z,6.20
2023-05-13T06:19:38.632Z,6.23
2023-05-13T06:20:40.083Z,6.25
2023-05-13T06:21:41.537Z,6.27
2023-05-13T06:22:42.991Z,6.30
2023-05-13T06:23:44.434Z,6.32
2023-05-13T06:24:45.876Z,6.35
2023-05-13T06:25:47.320Z,6.36
2023-05-13T06:26:48.747Z,6.39
2023-05-13T06:27:50.209Z,6.41
2023-05-13T06:28:51.663Z,6.44
2023-05-13T06:29:53.088Z,6.45
2023-05-13T06:30:54.602Z,6.46
2023-05-13T06:31:56.035Z,6.49
2023-05-13T06:33:01.607Z,6.53
2023-05-13T06:34:04.015Z,6.55
2023-05-13T06:35:05.450Z,6.56
2023-05-13T06:36:06.889Z,6.58
2023-05-13T06:37:08.290Z,6.60
2023-05-13T06:38:09.694Z,6.61
2023-05-13T06:39:11.110Z,6.64
2023-05-13T06:40:12.592Z,6.66
2023-05-13T06:41:14.053Z,6.69
2023-05-13T06:42:15.531Z,6.70
2023-05-13T06:43:16.971Z,6.73
2023-05-13T06:44:18.394Z,6.75
2023-05-13T06:45:19.872Z,6.76
2023-05-13T06:46:21.348Z,6.78
2023-05-13T06:47:23.958Z,6.81
2023-05-13T06:48:25.560Z,6.84
2023-05-13T06:49:26.961Z,6.85
2023-05-13T06:50:28.397Z,6.87
2023-05-13T06:51:29.828Z,6.88
2023-05-13T06:52:31.259Z,6.90
2023-05-13T06:53:32.705Z,6.92
2023-05-13T06:54:34.133Z,6.95
2023-05-13T06:55:35.581Z,6.97
2023-05-13T06:56:37.022Z,6.98
2023-05-13T06:57:42.970Z,6.99
2023-05-13T06:58:45.116Z,7.04
2023-05-13T06:59:46.600Z,7.06
2023-05-13T07:00:48.282Z,7.07
2023-05-13T07:01:49.765Z,7.10
2023-05-13T07:02:51.199Z,7.12
2023-05-13T07:03:52.740Z,7.15
2023-05-13T07:04:54.190Z,7.16
2023-05-13T07:05:55.631Z,7.17
2023-05-13T07:06:57.102Z,7.19
2023-05-13T07:07:58.545Z,7.22
2023-05-13T07:08:59.932Z,7.24
2023-05-13T07:10:01.371Z,7.27
2023-05-13T07:11:02.768Z,7.30
2023-05-13T07:12:04.210Z,7.32
2023-05-13T07:13:05.641Z,7.34
2023-05-13T07:14:07.101Z,7.35
2023-05-13T07:15:08.546Z,7.38
2023-05-13T07:16:10.051Z,7.40
2023-05-13T07:17:11.705Z,7.42
2023-05-13T07:18:13.302Z,7.45
2023-05-13T07:19:14.928Z,7.47
2023-05-13T07:20:16.459Z,7.50
2023-05-13T07:21:18.004Z,7.52
2023-05-13T07:22:19.546Z,7.54
2023-05-13T07:23:21.081Z,7.58
2023-05-13T07:24:22.589Z,7.59
2023-05-13T07:25:24.127Z,7.61
2023-05-13T07:26:25.669Z,7.63
2023-05-13T07:27:27.312Z,7.65
2023-05-13T07:28:28.895Z,7.69
2023-05-13T07:29:30.440Z,7.71
2023-05-13T07:30:31.988Z,7.73
2023-05-13T07:31:33.500Z,7.77
2023-05-13T07:32:35.099Z,7.80
2023-05-13T07:33:36.687Z,7.80
2023-05-13T07:34:38.132Z,7.84
2023-05-13T07:35:40.029Z,7.85
2023-05-13T07:36:41.443Z,7.90
2023-05-13T07:37:42.902Z,7.93
2023-05-13T07:38:44.320Z,7.94
2023-05-13T07:39:45.743Z,7.97
2023-05-13T07:40:47.202Z,8.02
2023-05-13T07:41:48.713Z,8.04
2023-05-13T07:42:50.172Z,8.05
2023-05-13T07:43:51.569Z,8.09
2023-05-13T07:44:53.010Z,8.12
2023-05-13T07:45:54.460Z,8.14
2023-05-13T07:46:55.923Z,8.17
2023-05-13T07:47:57.461Z,8.20
2023-05-13T07:48:58.947Z,8.23
2023-05-13T07:50:00.370Z,8.27
2023-05-13T07:51:01.815Z,8.29
2023-05-13T07:52:03.240Z,8.33
2023-05-13T07:53:04.677Z,8.35
2023-05-13T07:54:06.104Z,8.40
2023-05-13T07:55:07.551Z,8.42
2023-05-13T07:56:09.012Z,8.46
2023-05-13T07:57:10.432Z,8.49
2023-05-13T07:58:12.079Z,8.53
2023-05-13T07:59:13.480Z,8.54
2023-05-13T08:00:14.897Z,8.58
2023-05-13T08:01:16.367Z,8.61
2023-05-13T08:02:17.800Z,8.63
2023-05-13T08:03:19.400Z,8.68
2023-05-13T08:04:21.114Z,8.71
2023-05-13T08:05:22.849Z,8.75
2023-05-13T08:06:24.480Z,8.79
2023-05-13T08:07:25.926Z,8.82
2023-05-13T08:08:27.368Z,8.85
2023-05-13T08:09:28.787Z,8.90
2023-05-13T08:10:30.252Z,8.93
2023-05-13T08:11:31.733Z,8.97
2023-05-13T08:12:33.172Z,9.00
2023-05-13T08:13:34.563Z,9.03
2023-05-13T08:14:36.019Z,9.06
2023-05-13T08:15:37.440Z,9.10
2023-05-13T08:16:38.949Z,9.12
2023-05-13T08:17:40.484Z,9.16
2023-05-13T08:18:41.928Z,9.19
2023-05-13T08:19:43.409Z,9.22
2023-05-13T08:20:44.810Z,9.25
2023-05-13T08:21:46.283Z,9.27
2023-05-13T08:22:47.802Z,9.31
2023-05-13T08:23:49.249Z,9.34
2023-05-13T08:24:50.670Z,9.35
2023-05-13T08:25:52.083Z,9.39
2023-05-13T08:26:53.516Z,9.42
2023-05-13T08:27:55.002Z,9.44
2023-05-13T08:28:56.408Z,9.47
2023-05-13T08:29:57.860Z,9.49
2023-05-13T08:30:59.281Z,9.52
2023-05-13T08:32:00.720Z,9.54
2023-05-13T08:33:02.214Z,9.56
2023-05-13T08:34:03.662Z,9.59
2023-05-13T08:35:05.058Z,9.61
2023-05-13T08:36:06.498Z,9.64
2023-05-13T08:37:07.925Z,9.67
2023-05-13T08:38:09.416Z,9.69
2023-05-13T08:39:10.845Z,9.71
2023-05-13T08:40:12.291Z,9.73
2023-05-13T08:41:13.747Z,9.76
2023-05-13T08:42:15.183Z,9.79
2023-05-13T08:43:16.666Z,9.80
2023-05-13T08:44:18.066Z,9.82
2023-05-13T08:45:19.641Z,9.85
2023-05-13T08:46:21.205Z,9.87
2023-05-13T08:47:22.725Z,9.90
2023-05-13T08:48:24.188Z,9.93
2023-05-13T08:49:25.606Z,9.95
2023-05-13T08:51:28.490Z,10.00
2023-05-13T08:52:29.921Z,10.02
2023-05-13T08:53:31.429Z,10.03
2023-05-13T08:54:32.918Z,10.07
2023-05-13T08:55:34.315Z,10.10
2023-05-13T08:56:35.740Z,10.12
2023-05-13T08:57:37.165Z,10.14
2023-05-13T08:58:38.999Z,10.17
2023-05-13T08:59:40.457Z,10.18
2023-05-13T09:00:41.866Z,10.21
2023-05-13T09:01:43.359Z,10.22
2023-05-13T09:02:44.858Z,10.23
2023-05-13T09:03:46.333Z,10.27
2023-05-13T09:04:47.819Z,10.29
2023-05-13T09:05:49.309Z,10.30
2023-05-13T09:06:50.736Z,10.32
2023-05-13T09:07:52.149Z,10.33
2023-05-13T09:08:53.628Z,10.35
2023-05-13T09:09:55.072Z,10.38
2023-05-13T09:10:56.504Z,10.40
2023-05-13T09:11:57.926Z,10.40
2023-05-13T09:12:59.357Z,10.44
2023-05-13T09:14:00.829Z,10.44
2023-05-13T09:15:02.289Z,10.46
2023-05-13T09:16:03.741Z,10.49
2023-05-13T09:17:05.225Z,10.51
2023-05-13T09:18:06.760Z,10.53
2023-05-13T09:19:08.930Z,10.54
2023-05-13T09:20:10.432Z,10.55
2023-05-13T09:21:11.848Z,10.57
2023-05-13T09:22:13.279Z,10.58
2023-05-13T09:23:14.674Z,10.60
2023-05-13T09:24:16.085Z,10.61
2023-05-13T09:25:17.497Z,10.62
2023-05-13T09:26:18.925Z,10.65
2023-05-13T09:27:20.346Z,10.66
2023-05-13T09:28:21.796Z,10.68
2023-05-13T09:29:23.242Z,10.69
2023-05-13T09:30:24.708Z,10.70
2023-05-13T09:31:26.186Z,10.72
2023-05-13T09:32:27.697Z,10.72
2023-05-13T09:33:29.149Z,10.73
2023-05-13T09:34:30.616Z,10.74
2023-05-13T09:35:32.071Z,10.76
2023-05-13T09:36:33.482Z,10.77
2023-05-13T09:37:34.903Z,10.78
2023-05-13T09:38:36.299Z,10.79
2023-05-13T09:39:37.712Z,10.80
2023-05-13T09:40:39.129Z,10.80
2023-05-13T09:41:40.577Z,10.81
2023-05-13T09:42:42.041Z,10.83
2023-05-13T09:43:43.452Z,10.83
2023-05-13T09:44:44.872Z,10.84
2023-05-13T09:45:46.266Z,10.84
2023-05-13T09:46:47.714Z,10.86
2023-05-13T09:47:49.203Z,10.86
2023-05-13T09:48:50.631Z,10.87
2023-05-13T09:49:52.084Z,10.87
2023-05-13T09:50:53.650Z,10.88
2023-05-13T09:51:55.157Z,10.88
2023-05-13T09:52:56.627Z,10.90
2023-05-13T09:53:58.044Z,10.89
2023-05-13T09:54:59.442Z,10.89
2023-05-13T09:56:00.876Z,10.90
2023-05-13T09:57:02.303Z,10.90
2023-05-13T09:58:03.754Z,10.90
2023-05-13T09:59:06.305Z,10.90
2023-05-13T10:00:12.851Z,10.91
2023-05-13T10:01:19.649Z,10.93
2023-05-13T10:02:21.109Z,10.92
2023-05-13T10:03:22.695Z,10.91
2023-05-13T10:04:24.233Z,10.91
2023-05-13T10:05:25.717Z,10.90
2023-05-13T10:06:27.127Z,10.91
2023-05-13T10:07:28.551Z,10.90
2023-05-13T10:08:30.013Z,10.90
2023-05-13T10:09:31.447Z,10.92
2023-05-13T10:10:32.893Z,10.92
2023-05-13T10:11:34.290Z,10.93
2023-05-13T10:12:35.735Z,10.93
2023-05-13T10:13:37.158Z,10.94
2023-05-13T10:14:38.568Z,10.95
2023-05-13T10:15:40.358Z,10.94
2023-05-13T10:16:41.843Z,10.95
2023-05-13T10:17:43.353Z,10.95
2023-05-13T10:18:44.905Z,10.97
2023-05-13T10:19:46.421Z,10.97
2023-05-13T10:20:47.874Z,10.98
2023-05-13T10:21:49.307Z,10.98
2023-05-13T10:22:50.734Z,10.99
2023-05-13T10:23:52.160Z,10.99
2023-05-13T10:24:53.613Z,10.99
2023-05-13T10:25:55.044Z,10.99
2023-05-13T10:26:56.443Z,11.00
2023-05-13T10:27:57.881Z,11.00
2023-05-13T10:28:59.324Z,11.00
2023-05-13T10:30:03.194Z,11.00
2023-05-13T10:31:05.248Z,11.01
2023-05-13T10:32:06.703Z,11.01
2023-05-13T10:33:08.192Z,10.99
2023-05-13T10:34:09.634Z,11.00
2023-05-13T10:35:11.048Z,11.00
2023-05-13T10:36:12.497Z,11.00
2023-05-13T10:37:13.894Z,11.01
2023-05-13T10:38:15.300Z,11.00
2023-05-13T10:39:16.714Z,11.01
2023-05-13T10:40:18.225Z,11.00
2023-05-13T10:41:19.757Z,11.00
2023-05-13T10:42:21.204Z,10.99
2023-05-13T10:43:22.630Z,10.99
2023-05-13T10:44:24.062Z,10.99
2023-05-13T10:45:25.536Z,10.98
2023-05-13T10:46:27.050Z,10.97
2023-05-13T10:47:28.736Z,10.97
2023-05-13T10:48:30.320Z,10.96
2023-05-13T10:49:31.781Z,10.95
2023-05-13T10:50:33.201Z,10.94
2023-05-13T10:51:34.642Z,10.93
2023-05-13T10:52:36.083Z,10.93
2023-05-13T10:53:37.542Z,10.93
2023-05-13T10:54:39.192Z,10.91
2023-05-13T10:55:40.615Z,10.91
2023-05-13T10:56:42.026Z,10.90
2023-05-13T10:57:43.510Z,10.90
2023-05-13T10:58:44.946Z,10.88
2023-05-13T10:59:46.759Z,10.88
2023-05-13T11:00:48.207Z,10.88
2023-05-13T11:01:49.778Z,10.86
2023-05-13T11:02:51.368Z,10.86
2023-05-13T11:03:53.038Z,10.85
2023-05-13T11:04:54.608Z,10.84
2023-05-13T11:05:56.071Z,10.83
2023-05-13T11:06:57.511Z,10.83
2023-05-13T11:07:58.915Z,10.82
2023-05-13T11:09:00.320Z,10.82
2023-05-13T11:10:01.742Z,10.80
2023-05-13T11:11:03.204Z,10.81
2023-05-13T11:12:04.644Z,10.79
2023-05-13T11:13:06.040Z,10.79
2023-05-13T11:14:08.582Z,10.78
2023-05-13T11:15:10.185Z,10.77
2023-05-13T11:16:11.858Z,10.77
2023-05-13T11:17:13.307Z,10.77
2023-05-13T11:18:14.767Z,10.75
2023-05-13T11:19:16.221Z,10.75
2023-05-13T11:20:17.662Z,10.75
2023-05-13T11:21:19.100Z,10.74
2023-05-13T11:22:20.550Z,10.74
2023-05-13T11:23:21.982Z,10.73
2023-05-13T11:24:23.421Z,10.73
2023-05-13T11:25:24.840Z,10.73
2023-05-13T11:26:26.299Z,10.72
2023-05-13T11:27:27.751Z,10.72
2023-05-13T11:28:29.215Z,10.72
2023-05-13T11:29:30.667Z,10.71
2023-05-13T11:30:32.086Z,10.72
2023-05-13T11:31:33.556Z,10.72
2023-05-13T11:32:35.063Z,10.72
2023-05-13T11:33:36.532Z,10.72
2023-05-13T11:34:37.942Z,10.72
2023-05-13T11:35:39.385Z,10.71
2023-05-13T11:36:41.286Z,10.73
2023-05-13T11:37:42.704Z,10.73
2023-05-13T11:38:44.159Z,10.73
2023-05-13T11:39:45.597Z,10.74
2023-05-13T11:40:47.001Z,10.76
2023-05-13T11:41:48.488Z,10.77
2023-05-13T11:42:49.895Z,10.80
2023-05-13T11:43:51.346Z,10.81
2023-05-13T11:44:52.755Z,10.82
2023-05-13T11:45:54.191Z,10.83
2023-05-13T11:46:55.657Z,10.87
2023-05-13T11:47:57.102Z,10.89
2023-05-13T11:48:58.522Z,10.91
2023-05-13T11:49:59.948Z,10.94
2023-05-13T11:51:01.402Z,10.98
2023-05-13T11:52:02.859Z,11.02
2023-05-13T11:53:04.301Z,11.06
2023-05-13T11:54:05.727Z,11.10
2023-05-13T11:55:07.194Z,11.14
2023-05-13T11:56:08.627Z,11.17
2023-05-13T11:57:10.078Z,11.22
2023-05-13T11:58:13.269Z,11.27
2023-05-13T11:59:14.751Z,11.33
2023-05-13T12:00:16.267Z,11.38
2023-05-13T12:01:17.676Z,11.43
2023-05-13T12:02:19.183Z,11.48
2023-05-13T12:03:20.718Z,11.52
2023-05-13T12:04:22.130Z,11.57
2023-05-13T12:05:24.162Z,11.64
2023-05-13T12:06:25.857Z,11.70
2023-05-13T12:07:27.381Z,11.75
2023-05-13T12:08:28.841Z,11.80
2023-05-13T12:09:30.272Z,11.84
2023-05-13T12:10:31.712Z,11.91
2023-05-13T12:11:33.189Z,11.97
2023-05-13T12:12:34.670Z,12.02
2023-05-13T12:13:36.123Z,12.09
2023-05-13T12:14:37.603Z,12.13
2023-05-13T12:15:39.136Z,12.18
2023-05-13T12:16:40.608Z,12.25
2023-05-13T12:17:42.078Z,12.30
2023-05-13T12:18:43.585Z,12.36
2023-05-13T12:19:45.033Z,12.42
2023-05-13T12:20:46.437Z,12.47
2023-05-13T12:21:47.880Z,12.52
2023-05-13T12:22:49.307Z,12.57
2023-05-13T12:23:50.733Z,12.63
2023-05-13T12:24:52.210Z,12.68
2023-05-13T12:25:53.604Z,12.72
2023-05-13T12:26:55.002Z,12.77
2023-05-13T12:27:56.446Z,12.81
2023-05-13T12:28:57.855Z,12.88
2023-05-13T12:29:59.252Z,12.91
2023-05-13T12:31:00.703Z,12.97
2023-05-13T12:32:02.177Z,13.02
2023-05-13T12:33:03.699Z,13.06
2023-05-13T12:34:05.234Z,13.11
2023-05-13T12:35:06.640Z,13.15
2023-05-13T12:36:08.027Z,13.19
2023-05-13T12:37:09.504Z,13.24
2023-05-13T12:38:11.283Z,13.28
2023-05-13T12:39:12.702Z,13.33
2023-05-13T12:40:14.111Z,13.37
2023-05-13T12:41:15.644Z,13.40
2023-05-13T12:42:17.076Z,13.44
2023-05-13T12:43:18.512Z,13.48
2023-05-13T12:44:19.948Z,13.51
2023-05-13T12:45:21.641Z,13.55
2023-05-13T12:46:23.308Z,13.60
2023-05-13T12:47:24.801Z,13.62
2023-05-13T12:48:26.262Z,13.64
2023-05-13T12:49:27.701Z,13.70
2023-05-13T12:50:29.151Z,13.72
2023-05-13T12:51:30.578Z,13.75
2023-05-13T12:52:32.020Z,13.76
2023-05-13T12:53:33.461Z,13.79
2023-05-13T12:54:34.897Z,13.81
2023-05-13T12:55:36.327Z,13.83
2023-05-13T12:56:37.765Z,13.84
2023-05-13T12:57:39.238Z,13.84
2023-05-13T12:58:40.785Z,13.85
2023-05-13T12:59:42.356Z,13.87
2023-05-13T13:00:44.525Z,13.87
2023-05-13T13:01:46.010Z,13.88
2023-05-13T13:02:47.565Z,13.88
2023-05-13T13:03:49.166Z,13.87
2023-05-13T13:04:50.684Z,13.87
2023-05-13T13:05:52.079Z,13.86
2023-05-13T13:06:53.550Z,13.86
2023-05-13T13:07:55.003Z,13.84
2023-05-13T13:08:56.431Z,13.84
2023-05-13T13:09:57.858Z,13.83
2023-05-13T13:10:59.288Z,13.82
2023-05-13T13:12:00.713Z,13.81
2023-05-13T13:13:02.159Z,13.79
2023-05-13T13:14:03.592Z,13.78
2023-05-13T13:15:05.023Z,13.77
2023-05-13T13:16:06.511Z,13.74
2023-05-13T13:17:08.034Z,13.74
2023-05-13T13:18:09.536Z,13.71
2023-05-13T13:19:11.063Z,13.70
2023-05-13T13:20:12.523Z,13.67
2023-05-13T13:21:13.983Z,13.66
2023-05-13T13:22:15.418Z,13.64
2023-05-13T13:23:17.127Z,13.61
2023-05-13T13:24:18.602Z,13.59
2023-05-13T13:25:20.328Z,13.57
2023-05-13T13:26:22.016Z,13.54
2023-05-13T13:27:23.430Z,13.53
2023-05-13T13:28:24.882Z,13.51
2023-05-13T13:29:26.325Z,13.50
2023-05-13T13:30:27.816Z,13.48